sensor_id;sensor_type;location;lat;lon;timestamp;P1;durP1;ratioP1;P2;durP2;ratioP2
11471;SDS011;47430;50.808;4.388;2022-12-10T00:00:44;45.23;;;18.10;;
11471;SDS011;47430;50.808;4.388;2022-12-10T00:03:10;47.67;;;18.90;;
11471;SDS011;47430;50.808;4.388;2022-12-10T00:05:36;49.77;;;16.33;;
11471;SDS011;47430;50.808;4.388;2022-12-10T00:08:03;46.50;;;19.33;;
11471;SDS011;47430;50.808;4.388;2022-12-10T00:10:31;52.53;;;18.53;;
11471;SDS011;47430;50.808;4.388;2022-12-10T00:12:57;48.43;;;19.47;;
11471;SDS011;47430;50.808;4.388;2022-12-10T00:15:23;50.03;;;18.47;;
11471;SDS011;47430;50.808;4.388;2022-12-10T00:17:49;43.33;;;17.47;;
11471;SDS011;47430;50.808;4.388;2022-12-10T00:20:15;44.17;;;17.60;;
11471;SDS011;47430;50.808;4.388;2022-12-10T00:22:41;42.87;;;17.10;;
11471;SDS011;47430;50.808;4.388;2022-12-10T00:25:07;49.50;;;18.50;;
11471;SDS011;47430;50.808;4.388;2022-12-10T00:27:34;47.40;;;17.73;;
11471;SDS011;47430;50.808;4.388;2022-12-10T00:30:00;40.27;;;16.63;;
11471;SDS011;47430;50.808;4.388;2022-12-10T00:32:26;42.87;;;17.83;;
11471;SDS011;47430;50.808;4.388;2022-12-10T00:34:52;52.17;;;20.92;;
11471;SDS011;47430;50.808;4.388;2022-12-10T00:37:18;43.23;;;16.77;;
11471;SDS011;47430;50.808;4.388;2022-12-10T00:39:44;46.03;;;15.60;;
11471;SDS011;47430;50.808;4.388;2022-12-10T00:42:13;44.43;;;17.37;;
11471;SDS011;47430;50.808;4.388;2022-12-10T00:44:43;42.23;;;16.80;;
11471;SDS011;47430;50.808;4.388;2022-12-10T00:47:09;41.33;;;15.93;;
11471;SDS011;47430;50.808;4.388;2022-12-10T00:49:35;48.63;;;17.03;;
11471;SDS011;47430;50.808;4.388;2022-12-10T00:52:01;50.07;;;15.77;;
11471;SDS011;47430;50.808;4.388;2022-12-10T00:54:27;45.37;;;18.13;;
11471;SDS011;47430;50.808;4.388;2022-12-10T00:56:53;47.37;;;16.40;;
11471;SDS011;47430;50.808;4.388;2022-12-10T00:59:19;42.53;;;17.23;;
11471;SDS011;47430;50.808;4.388;2022-12-10T01:01:46;46.20;;;17.30;;
11471;SDS011;47430;50.808;4.388;2022-12-10T01:04:14;35.93;;;15.83;;
11471;SDS011;47430;50.808;4.388;2022-12-10T01:06:50;43.83;;;17.87;;
11471;SDS011;47430;50.808;4.388;2022-12-10T01:09:17;40.60;;;16.83;;
11471;SDS011;47430;50.808;4.388;2022-12-10T01:11:45;34.77;;;15.63;;
11471;SDS011;47430;50.808;4.388;2022-12-10T01:14:12;46.87;;;17.47;;
11471;SDS011;47430;50.808;4.388;2022-12-10T01:16:39;49.53;;;18.10;;
11471;SDS011;47430;50.808;4.388;2022-12-10T01:19:06;39.60;;;17.77;;
11471;SDS011;47430;50.808;4.388;2022-12-10T01:21:35;47.93;;;19.03;;
11471;SDS011;47430;50.808;4.388;2022-12-10T01:24:01;51.00;;;17.77;;
11471;SDS011;47430;50.808;4.388;2022-12-10T01:26:29;47.63;;;17.97;;
11471;SDS011;47430;50.808;4.388;2022-12-10T01:28:56;56.63;;;19.60;;
11471;SDS011;47430;50.808;4.388;2022-12-10T01:31:26;49.27;;;18.17;;
11471;SDS011;47430;50.808;4.388;2022-12-10T01:33:53;54.03;;;19.47;;
11471;SDS011;47430;50.808;4.388;2022-12-10T01:36:21;47.93;;;18.13;;
11471;SDS011;47430;50.808;4.388;2022-12-10T01:38:48;49.77;;;18.80;;
11471;SDS011;47430;50.808;4.388;2022-12-10T01:41:21;47.60;;;18.10;;
11471;SDS011;47430;50.808;4.388;2022-12-10T01:43:49;46.17;;;18.80;;
11471;SDS011;47430;50.808;4.388;2022-12-10T01:46:16;40.73;;;17.30;;
11471;SDS011;47430;50.808;4.388;2022-12-10T01:48:42;44.03;;;18.43;;
11471;SDS011;47430;50.808;4.388;2022-12-10T01:51:08;43.40;;;17.03;;
11471;SDS011;47430;50.808;4.388;2022-12-10T01:53:35;42.20;;;17.20;;
11471;SDS011;47430;50.808;4.388;2022-12-10T01:56:01;44.80;;;18.23;;
11471;SDS011;47430;50.808;4.388;2022-12-10T01:58:27;46.17;;;20.57;;
11471;SDS011;47430;50.808;4.388;2022-12-10T02:03:35;42.70;;;18.57;;
11471;SDS011;47430;50.808;4.388;2022-12-10T02:06:07;43.47;;;16.63;;
11471;SDS011;47430;50.808;4.388;2022-12-10T02:08:39;46.00;;;18.27;;
11471;SDS011;47430;50.808;4.388;2022-12-10T02:11:16;49.93;;;19.63;;
11471;SDS011;47430;50.808;4.388;2022-12-10T02:13:55;51.90;;;19.20;;
11471;SDS011;47430;50.808;4.388;2022-12-10T02:16:37;41.70;;;19.57;;
11471;SDS011;47430;50.808;4.388;2022-12-10T02:21:40;55.97;;;18.90;;
11471;SDS011;47430;50.808;4.388;2022-12-10T02:24:08;49.43;;;20.17;;
11471;SDS011;47430;50.808;4.388;2022-12-10T02:29:24;52.60;;;20.10;;
11471;SDS011;47430;50.808;4.388;2022-12-10T02:32:09;48.03;;;19.80;;
11471;SDS011;47430;50.808;4.388;2022-12-10T02:34:38;52.90;;;20.40;;
11471;SDS011;47430;50.808;4.388;2022-12-10T02:37:06;51.67;;;18.63;;
11471;SDS011;47430;50.808;4.388;2022-12-10T02:39:35;50.33;;;20.20;;
11471;SDS011;47430;50.808;4.388;2022-12-10T02:42:04;59.03;;;20.30;;
11471;SDS011;47430;50.808;4.388;2022-12-10T02:44:32;54.10;;;21.33;;
11471;SDS011;47430;50.808;4.388;2022-12-10T02:46:59;57.10;;;21.60;;
11471;SDS011;47430;50.808;4.388;2022-12-10T02:49:26;49.37;;;21.13;;
11471;SDS011;47430;50.808;4.388;2022-12-10T02:51:54;56.13;;;21.77;;
11471;SDS011;47430;50.808;4.388;2022-12-10T02:54:37;53.27;;;20.37;;
11471;SDS011;47430;50.808;4.388;2022-12-10T03:02:49;51.83;;;20.90;;
11471;SDS011;47430;50.808;4.388;2022-12-10T03:07:43;59.30;;;23.93;;
11471;SDS011;47430;50.808;4.388;2022-12-10T03:10:14;72.27;;;25.97;;
11471;SDS011;47430;50.808;4.388;2022-12-10T03:12:43;58.13;;;22.87;;
11471;SDS011;47430;50.808;4.388;2022-12-10T03:15:12;63.53;;;21.90;;
11471;SDS011;47430;50.808;4.388;2022-12-10T03:17:38;70.03;;;25.57;;
11471;SDS011;47430;50.808;4.388;2022-12-10T03:20:08;76.87;;;26.70;;
11471;SDS011;47430;50.808;4.388;2022-12-10T03:22:35;64.20;;;22.47;;
11471;SDS011;47430;50.808;4.388;2022-12-10T03:25:03;67.80;;;24.23;;
11471;SDS011;47430;50.808;4.388;2022-12-10T03:27:30;75.17;;;26.67;;
11471;SDS011;47430;50.808;4.388;2022-12-10T03:29:58;81.90;;;27.70;;
11471;SDS011;47430;50.808;4.388;2022-12-10T03:32:25;75.00;;;26.23;;
11471;SDS011;47430;50.808;4.388;2022-12-10T03:34:54;78.50;;;28.93;;
11471;SDS011;47430;50.808;4.388;2022-12-10T03:37:23;81.33;;;27.47;;
11471;SDS011;47430;50.808;4.388;2022-12-10T03:39:50;85.77;;;30.57;;
11471;SDS011;47430;50.808;4.388;2022-12-10T03:42:16;75.27;;;27.07;;
11471;SDS011;47430;50.808;4.388;2022-12-10T03:44:44;90.47;;;30.43;;
11471;SDS011;47430;50.808;4.388;2022-12-10T03:47:11;89.03;;;31.07;;
11471;SDS011;47430;50.808;4.388;2022-12-10T03:49:38;67.33;;;25.23;;
11471;SDS011;47430;50.808;4.388;2022-12-10T03:52:04;93.23;;;31.07;;
11471;SDS011;47430;50.808;4.388;2022-12-10T03:54:30;93.37;;;30.83;;
11471;SDS011;47430;50.808;4.388;2022-12-10T03:56:56;99.30;;;31.93;;
11471;SDS011;47430;50.808;4.388;2022-12-10T03:59:22;100.57;;;30.93;;
11471;SDS011;47430;50.808;4.388;2022-12-10T04:01:48;84.27;;;27.13;;
11471;SDS011;47430;50.808;4.388;2022-12-10T04:04:15;81.93;;;28.87;;
11471;SDS011;47430;50.808;4.388;2022-12-10T04:06:41;85.73;;;27.60;;
11471;SDS011;47430;50.808;4.388;2022-12-10T04:09:11;102.97;;;29.17;;
11471;SDS011;47430;50.808;4.388;2022-12-10T04:11:37;81.57;;;27.73;;
11471;SDS011;47430;50.808;4.388;2022-12-10T04:14:03;90.23;;;28.47;;
11471;SDS011;47430;50.808;4.388;2022-12-10T04:17:09;93.50;;;28.77;;
11471;SDS011;47430;50.808;4.388;2022-12-10T04:19:38;87.17;;;32.30;;
11471;SDS011;47430;50.808;4.388;2022-12-10T04:22:04;104.70;;;34.07;;
11471;SDS011;47430;50.808;4.388;2022-12-10T04:24:49;83.37;;;27.03;;
11471;SDS011;47430;50.808;4.388;2022-12-10T04:27:39;86.83;;;30.53;;
11471;SDS011;47430;50.808;4.388;2022-12-10T04:30:07;102.83;;;29.47;;
11471;SDS011;47430;50.808;4.388;2022-12-10T04:32:34;97.73;;;30.93;;
11471;SDS011;47430;50.808;4.388;2022-12-10T04:35:00;80.30;;;28.93;;
11471;SDS011;47430;50.808;4.388;2022-12-10T04:37:27;98.53;;;28.43;;
11471;SDS011;47430;50.808;4.388;2022-12-10T04:39:53;87.90;;;28.83;;
11471;SDS011;47430;50.808;4.388;2022-12-10T04:42:20;100.77;;;26.93;;
11471;SDS011;47430;50.808;4.388;2022-12-10T04:44:47;127.43;;;32.77;;
11471;SDS011;47430;50.808;4.388;2022-12-10T04:47:13;120.50;;;29.50;;
11471;SDS011;47430;50.808;4.388;2022-12-10T04:49:40;88.93;;;28.87;;
11471;SDS011;47430;50.808;4.388;2022-12-10T04:52:07;90.83;;;29.03;;
11471;SDS011;47430;50.808;4.388;2022-12-10T04:54:33;88.73;;;26.00;;
11471;SDS011;47430;50.808;4.388;2022-12-10T04:56:59;87.13;;;25.10;;
11471;SDS011;47430;50.808;4.388;2022-12-10T04:59:26;88.13;;;28.27;;
11471;SDS011;47430;50.808;4.388;2022-12-10T05:01:52;89.20;;;27.63;;
11471;SDS011;47430;50.808;4.388;2022-12-10T05:04:18;84.57;;;25.23;;
11471;SDS011;47430;50.808;4.388;2022-12-10T05:06:44;86.57;;;24.60;;
11471;SDS011;47430;50.808;4.388;2022-12-10T05:09:11;144.77;;;24.40;;
11471;SDS011;47430;50.808;4.388;2022-12-10T05:11:37;75.77;;;21.57;;
11471;SDS011;47430;50.808;4.388;2022-12-10T05:14:04;62.07;;;21.30;;
11471;SDS011;47430;50.808;4.388;2022-12-10T05:16:31;70.77;;;21.80;;
11471;SDS011;47430;50.808;4.388;2022-12-10T05:18:58;70.60;;;21.13;;
11471;SDS011;47430;50.808;4.388;2022-12-10T05:21:25;67.13;;;21.63;;
11471;SDS011;47430;50.808;4.388;2022-12-10T05:24:15;72.03;;;21.50;;
11471;SDS011;47430;50.808;4.388;2022-12-10T05:26:41;70.17;;;22.37;;
11471;SDS011;47430;50.808;4.388;2022-12-10T05:29:07;90.57;;;24.67;;
11471;SDS011;47430;50.808;4.388;2022-12-10T05:31:34;86.20;;;22.43;;
11471;SDS011;47430;50.808;4.388;2022-12-10T05:34:00;82.10;;;21.47;;
11471;SDS011;47430;50.808;4.388;2022-12-10T05:36:30;86.10;;;23.53;;
11471;SDS011;47430;50.808;4.388;2022-12-10T05:38:56;96.73;;;25.00;;
11471;SDS011;47430;50.808;4.388;2022-12-10T05:41:23;98.60;;;23.90;;
11471;SDS011;47430;50.808;4.388;2022-12-10T05:43:50;86.27;;;25.90;;
11471;SDS011;47430;50.808;4.388;2022-12-10T05:46:18;78.10;;;25.03;;
11471;SDS011;47430;50.808;4.388;2022-12-10T05:48:45;82.07;;;25.30;;
11471;SDS011;47430;50.808;4.388;2022-12-10T05:51:17;99.47;;;24.60;;
11471;SDS011;47430;50.808;4.388;2022-12-10T05:53:43;92.37;;;25.17;;
11471;SDS011;47430;50.808;4.388;2022-12-10T05:56:11;73.17;;;23.70;;
11471;SDS011;47430;50.808;4.388;2022-12-10T05:58:38;88.00;;;24.20;;
11471;SDS011;47430;50.808;4.388;2022-12-10T06:01:09;78.87;;;26.50;;
11471;SDS011;47430;50.808;4.388;2022-12-10T06:03:35;67.93;;;18.13;;
11471;SDS011;47430;50.808;4.388;2022-12-10T06:06:02;103.93;;;26.07;;
11471;SDS011;47430;50.808;4.388;2022-12-10T06:08:28;75.07;;;23.73;;
11471;SDS011;47430;50.808;4.388;2022-12-10T06:10:54;98.00;;;25.47;;
11471;SDS011;47430;50.808;4.388;2022-12-10T06:13:22;72.47;;;22.23;;
11471;SDS011;47430;50.808;4.388;2022-12-10T06:15:50;77.40;;;24.53;;
11471;SDS011;47430;50.808;4.388;2022-12-10T06:18:16;78.87;;;24.40;;
11471;SDS011;47430;50.808;4.388;2022-12-10T06:20:42;78.20;;;25.67;;
11471;SDS011;47430;50.808;4.388;2022-12-10T06:23:09;79.40;;;22.67;;
11471;SDS011;47430;50.808;4.388;2022-12-10T06:25:37;79.80;;;21.57;;
11471;SDS011;47430;50.808;4.388;2022-12-10T06:28:03;67.43;;;22.63;;
11471;SDS011;47430;50.808;4.388;2022-12-10T06:30:29;116.30;;;20.80;;
11471;SDS011;47430;50.808;4.388;2022-12-10T06:32:56;96.30;;;21.17;;
11471;SDS011;47430;50.808;4.388;2022-12-10T06:35:22;59.57;;;17.17;;
11471;SDS011;47430;50.808;4.388;2022-12-10T06:37:48;64.33;;;19.53;;
11471;SDS011;47430;50.808;4.388;2022-12-10T06:40:14;60.30;;;20.00;;
11471;SDS011;47430;50.808;4.388;2022-12-10T06:42:41;93.80;;;22.40;;
11471;SDS011;47430;50.808;4.388;2022-12-10T06:45:07;73.77;;;21.07;;
11471;SDS011;47430;50.808;4.388;2022-12-10T06:47:33;49.53;;;17.87;;
11471;SDS011;47430;50.808;4.388;2022-12-10T06:49:59;58.70;;;18.90;;
11471;SDS011;47430;50.808;4.388;2022-12-10T06:52:25;68.10;;;18.63;;
11471;SDS011;47430;50.808;4.388;2022-12-10T06:54:51;76.73;;;19.53;;
11471;SDS011;47430;50.808;4.388;2022-12-10T06:57:20;70.73;;;19.10;;
11471;SDS011;47430;50.808;4.388;2022-12-10T06:59:46;67.73;;;17.80;;
11471;SDS011;47430;50.808;4.388;2022-12-10T07:02:13;67.37;;;18.60;;
11471;SDS011;47430;50.808;4.388;2022-12-10T07:04:39;67.90;;;19.97;;
11471;SDS011;47430;50.808;4.388;2022-12-10T07:07:05;60.43;;;20.17;;
11471;SDS011;47430;50.808;4.388;2022-12-10T07:09:32;59.93;;;18.97;;
11471;SDS011;47430;50.808;4.388;2022-12-10T07:11:58;72.30;;;19.67;;
11471;SDS011;47430;50.808;4.388;2022-12-10T07:14:24;60.70;;;18.00;;
11471;SDS011;47430;50.808;4.388;2022-12-10T07:16:50;59.93;;;19.23;;
11471;SDS011;47430;50.808;4.388;2022-12-10T07:19:17;54.50;;;18.93;;
11471;SDS011;47430;50.808;4.388;2022-12-10T07:21:43;61.50;;;16.03;;
11471;SDS011;47430;50.808;4.388;2022-12-10T07:24:15;57.23;;;17.03;;
11471;SDS011;47430;50.808;4.388;2022-12-10T07:26:42;97.03;;;18.43;;
11471;SDS011;47430;50.808;4.388;2022-12-10T07:29:12;82.23;;;17.80;;
11471;SDS011;47430;50.808;4.388;2022-12-10T07:31:39;64.73;;;19.73;;
11471;SDS011;47430;50.808;4.388;2022-12-10T07:34:05;68.77;;;19.33;;
11471;SDS011;47430;50.808;4.388;2022-12-10T07:36:31;78.50;;;18.00;;
11471;SDS011;47430;50.808;4.388;2022-12-10T07:38:57;71.17;;;21.20;;
11471;SDS011;47430;50.808;4.388;2022-12-10T07:41:24;62.67;;;20.83;;
11471;SDS011;47430;50.808;4.388;2022-12-10T07:43:50;67.53;;;20.87;;
11471;SDS011;47430;50.808;4.388;2022-12-10T07:46:21;61.17;;;20.20;;
11471;SDS011;47430;50.808;4.388;2022-12-10T07:48:48;60.57;;;20.17;;
11471;SDS011;47430;50.808;4.388;2022-12-10T07:51:15;94.33;;;24.00;;
11471;SDS011;47430;50.808;4.388;2022-12-10T07:53:42;58.80;;;18.97;;
11471;SDS011;47430;50.808;4.388;2022-12-10T07:56:08;86.43;;;20.83;;
11471;SDS011;47430;50.808;4.388;2022-12-10T07:58:35;78.37;;;22.40;;
11471;SDS011;47430;50.808;4.388;2022-12-10T08:01:08;63.23;;;21.27;;
11471;SDS011;47430;50.808;4.388;2022-12-10T08:03:34;68.37;;;22.67;;
11471;SDS011;47430;50.808;4.388;2022-12-10T08:06:04;68.57;;;22.27;;
11471;SDS011;47430;50.808;4.388;2022-12-10T08:08:30;66.20;;;19.57;;
11471;SDS011;47430;50.808;4.388;2022-12-10T08:11:01;70.20;;;20.90;;
11471;SDS011;47430;50.808;4.388;2022-12-10T08:13:31;68.87;;;21.27;;
11471;SDS011;47430;50.808;4.388;2022-12-10T08:16:07;64.63;;;19.50;;
11471;SDS011;47430;50.808;4.388;2022-12-10T08:18:34;69.73;;;21.43;;
11471;SDS011;47430;50.808;4.388;2022-12-10T08:21:08;73.20;;;21.43;;
11471;SDS011;47430;50.808;4.388;2022-12-10T08:23:35;64.30;;;20.03;;
11471;SDS011;47430;50.808;4.388;2022-12-10T08:26:04;87.13;;;22.17;;
11471;SDS011;47430;50.808;4.388;2022-12-10T08:28:31;77.93;;;20.80;;
11471;SDS011;47430;50.808;4.388;2022-12-10T08:30:57;61.93;;;20.93;;
11471;SDS011;47430;50.808;4.388;2022-12-10T08:33:23;73.27;;;22.13;;
11471;SDS011;47430;50.808;4.388;2022-12-10T08:35:49;90.13;;;19.70;;
11471;SDS011;47430;50.808;4.388;2022-12-10T08:38:16;72.37;;;19.33;;
11471;SDS011;47430;50.808;4.388;2022-12-10T08:40:42;69.63;;;21.97;;
11471;SDS011;47430;50.808;4.388;2022-12-10T08:43:09;106.47;;;23.43;;
11471;SDS011;47430;50.808;4.388;2022-12-10T08:45:35;69.87;;;21.77;;
11471;SDS011;47430;50.808;4.388;2022-12-10T08:48:01;126.40;;;23.80;;
11471;SDS011;47430;50.808;4.388;2022-12-10T08:50:28;103.90;;;21.60;;
11471;SDS011;47430;50.808;4.388;2022-12-10T08:52:54;89.00;;;22.27;;
11471;SDS011;47430;50.808;4.388;2022-12-10T08:55:20;75.70;;;20.93;;
11471;SDS011;47430;50.808;4.388;2022-12-10T08:57:46;66.20;;;20.80;;
11471;SDS011;47430;50.808;4.388;2022-12-10T09:00:13;90.87;;;22.97;;
11471;SDS011;47430;50.808;4.388;2022-12-10T09:02:40;102.63;;;21.30;;
11471;SDS011;47430;50.808;4.388;2022-12-10T09:05:06;65.57;;;21.47;;
11471;SDS011;47430;50.808;4.388;2022-12-10T09:07:33;60.17;;;21.67;;
11471;SDS011;47430;50.808;4.388;2022-12-10T09:09:59;65.07;;;22.87;;
11471;SDS011;47430;50.808;4.388;2022-12-10T09:12:25;87.57;;;22.47;;
11471;SDS011;47430;50.808;4.388;2022-12-10T09:14:51;71.83;;;21.73;;
11471;SDS011;47430;50.808;4.388;2022-12-10T09:17:18;75.43;;;22.60;;
11471;SDS011;47430;50.808;4.388;2022-12-10T09:19:44;87.90;;;26.57;;
11471;SDS011;47430;50.808;4.388;2022-12-10T09:22:10;65.30;;;22.37;;
11471;SDS011;47430;50.808;4.388;2022-12-10T09:24:36;81.90;;;24.23;;
11471;SDS011;47430;50.808;4.388;2022-12-10T09:27:02;70.63;;;23.40;;
11471;SDS011;47430;50.808;4.388;2022-12-10T09:29:29;71.97;;;24.07;;
11471;SDS011;47430;50.808;4.388;2022-12-10T09:31:55;87.00;;;25.23;;
11471;SDS011;47430;50.808;4.388;2022-12-10T09:34:21;74.87;;;21.97;;
11471;SDS011;47430;50.808;4.388;2022-12-10T09:36:47;81.30;;;25.67;;
11471;SDS011;47430;50.808;4.388;2022-12-10T09:39:14;75.50;;;21.97;;
11471;SDS011;47430;50.808;4.388;2022-12-10T09:44:37;74.87;;;22.30;;
11471;SDS011;47430;50.808;4.388;2022-12-10T09:47:07;46.57;;;16.30;;
11471;SDS011;47430;50.808;4.388;2022-12-10T09:52:09;81.17;;;25.17;;
11471;SDS011;47430;50.808;4.388;2022-12-10T09:54:41;87.43;;;24.97;;
11471;SDS011;47430;50.808;4.388;2022-12-10T09:57:20;69.30;;;24.13;;
11471;SDS011;47430;50.808;4.388;2022-12-10T09:59:49;72.07;;;22.47;;
11471;SDS011;47430;50.808;4.388;2022-12-10T10:04:45;79.63;;;23.80;;
11471;SDS011;47430;50.808;4.388;2022-12-10T10:07:19;69.93;;;22.17;;
11471;SDS011;47430;50.808;4.388;2022-12-10T10:09:46;63.73;;;20.57;;
11471;SDS011;47430;50.808;4.388;2022-12-10T10:12:13;65.57;;;20.40;;
11471;SDS011;47430;50.808;4.388;2022-12-10T10:14:43;52.07;;;18.63;;
11471;SDS011;47430;50.808;4.388;2022-12-10T10:20:10;58.37;;;19.80;;
11471;SDS011;47430;50.808;4.388;2022-12-10T10:22:37;68.00;;;20.63;;
11471;SDS011;47430;50.808;4.388;2022-12-10T10:25:04;60.77;;;19.93;;
11471;SDS011;47430;50.808;4.388;2022-12-10T10:27:31;63.97;;;19.07;;
11471;SDS011;47430;50.808;4.388;2022-12-10T10:29:59;64.50;;;20.67;;
11471;SDS011;47430;50.808;4.388;2022-12-10T10:35:02;66.63;;;20.40;;
11471;SDS011;47430;50.808;4.388;2022-12-10T10:37:49;57.63;;;19.90;;
11471;SDS011;47430;50.808;4.388;2022-12-10T10:41:01;65.57;;;20.23;;
11471;SDS011;47430;50.808;4.388;2022-12-10T10:43:01;60.27;;;19.07;;
11471;SDS011;47430;50.808;4.388;2022-12-10T10:45:32;61.63;;;20.33;;
11471;SDS011;47430;50.808;4.388;2022-12-10T10:48:12;65.80;;;22.97;;
11471;SDS011;47430;50.808;4.388;2022-12-10T10:51:24;64.03;;;20.07;;
11471;SDS011;47430;50.808;4.388;2022-12-10T10:56:08;54.73;;;18.83;;
11471;SDS011;47430;50.808;4.388;2022-12-10T10:58:35;60.30;;;20.10;;
11471;SDS011;47430;50.808;4.388;2022-12-10T11:01:03;69.47;;;20.63;;
11471;SDS011;47430;50.808;4.388;2022-12-10T11:03:30;74.43;;;21.23;;
11471;SDS011;47430;50.808;4.388;2022-12-10T11:05:58;66.00;;;20.03;;
11471;SDS011;47430;50.808;4.388;2022-12-10T11:08:25;65.53;;;19.50;;
11471;SDS011;47430;50.808;4.388;2022-12-10T11:10:58;56.60;;;19.90;;
11471;SDS011;47430;50.808;4.388;2022-12-10T11:13:27;43.30;;;16.27;;
11471;SDS011;47430;50.808;4.388;2022-12-10T11:15:55;60.00;;;19.13;;
11471;SDS011;47430;50.808;4.388;2022-12-10T11:18:24;65.57;;;21.73;;
11471;SDS011;47430;50.808;4.388;2022-12-10T11:31:40;68.17;;;22.27;;
11471;SDS011;47430;50.808;4.388;2022-12-10T11:34:19;67.60;;;21.83;;
11471;SDS011;47430;50.808;4.388;2022-12-10T11:47:03;65.47;;;19.00;;
11471;SDS011;47430;50.808;4.388;2022-12-10T11:49:42;48.90;;;18.70;;
11471;SDS011;47430;50.808;4.388;2022-12-10T11:55:02;67.57;;;21.10;;
11471;SDS011;47430;50.808;4.388;2022-12-10T11:57:35;66.97;;;20.97;;
11471;SDS011;47430;50.808;4.388;2022-12-10T12:00:13;55.60;;;19.27;;
11471;SDS011;47430;50.808;4.388;2022-12-10T12:03:30;59.13;;;19.77;;
11471;SDS011;47430;50.808;4.388;2022-12-10T12:13:05;56.90;;;19.57;;
11471;SDS011;47430;50.808;4.388;2022-12-10T12:15:40;66.57;;;19.17;;
11471;SDS011;47430;50.808;4.388;2022-12-10T12:18:16;56.00;;;19.50;;
11471;SDS011;47430;50.808;4.388;2022-12-10T12:20:45;60.37;;;21.40;;
11471;SDS011;47430;50.808;4.388;2022-12-10T12:25:43;51.47;;;18.43;;
11471;SDS011;47430;50.808;4.388;2022-12-10T12:28:20;52.47;;;19.57;;
11471;SDS011;47430;50.808;4.388;2022-12-10T12:30:47;48.97;;;18.30;;
11471;SDS011;47430;50.808;4.388;2022-12-10T12:33:20;62.97;;;18.30;;
11471;SDS011;47430;50.808;4.388;2022-12-10T12:35:52;69.20;;;20.93;;
11471;SDS011;47430;50.808;4.388;2022-12-10T12:38:31;46.73;;;15.60;;
11471;SDS011;47430;50.808;4.388;2022-12-10T12:41:05;30.37;;;10.80;;
11471;SDS011;47430;50.808;4.388;2022-12-10T12:46:13;45.13;;;16.47;;
11471;SDS011;47430;50.808;4.388;2022-12-10T12:51:38;59.07;;;19.23;;
11471;SDS011;47430;50.808;4.388;2022-12-10T12:54:07;47.87;;;15.23;;
11471;SDS011;47430;50.808;4.388;2022-12-10T13:04:00;63.00;;;18.23;;
11471;SDS011;47430;50.808;4.388;2022-12-10T13:06:28;52.73;;;17.47;;
11471;SDS011;47430;50.808;4.388;2022-12-10T13:11:40;50.87;;;19.50;;
11471;SDS011;47430;50.808;4.388;2022-12-10T13:21:56;54.60;;;17.87;;
11471;SDS011;47430;50.808;4.388;2022-12-10T13:27:03;45.50;;;16.07;;
11471;SDS011;47430;50.808;4.388;2022-12-10T13:29:42;52.27;;;17.00;;
11471;SDS011;47430;50.808;4.388;2022-12-10T13:35:15;49.40;;;16.77;;
11471;SDS011;47430;50.808;4.388;2022-12-10T13:37:53;66.07;;;20.00;;
11471;SDS011;47430;50.808;4.388;2022-12-10T13:48:51;47.77;;;18.67;;
11471;SDS011;47430;50.808;4.388;2022-12-10T14:04:01;46.37;;;15.93;;
11471;SDS011;47430;50.808;4.388;2022-12-10T14:06:37;52.47;;;17.17;;
11471;SDS011;47430;50.808;4.388;2022-12-10T14:11:34;43.80;;;15.20;;
11471;SDS011;47430;50.808;4.388;2022-12-10T14:14:02;49.70;;;16.17;;
11471;SDS011;47430;50.808;4.388;2022-12-10T14:16:31;46.77;;;17.17;;
11471;SDS011;47430;50.808;4.388;2022-12-10T14:18:59;49.67;;;16.77;;
11471;SDS011;47430;50.808;4.388;2022-12-10T14:21:26;49.90;;;17.37;;
11471;SDS011;47430;50.808;4.388;2022-12-10T14:23:52;50.63;;;17.87;;
11471;SDS011;47430;50.808;4.388;2022-12-10T14:26:21;43.00;;;15.83;;
11471;SDS011;47430;50.808;4.388;2022-12-10T14:28:54;42.33;;;15.37;;
11471;SDS011;47430;50.808;4.388;2022-12-10T14:31:36;55.60;;;20.30;;
11471;SDS011;47430;50.808;4.388;2022-12-10T14:34:06;52.33;;;17.33;;
11471;SDS011;47430;50.808;4.388;2022-12-10T14:36:34;46.00;;;15.87;;
11471;SDS011;47430;50.808;4.388;2022-12-10T14:39:01;48.03;;;17.00;;
11471;SDS011;47430;50.808;4.388;2022-12-10T14:41:28;60.40;;;19.60;;
11471;SDS011;47430;50.808;4.388;2022-12-10T14:43:55;50.00;;;17.43;;
11471;SDS011;47430;50.808;4.388;2022-12-10T14:46:24;49.90;;;16.47;;
11471;SDS011;47430;50.808;4.388;2022-12-10T14:48:54;50.80;;;18.40;;
11471;SDS011;47430;50.808;4.388;2022-12-10T14:51:22;54.77;;;21.87;;
11471;SDS011;47430;50.808;4.388;2022-12-10T14:53:49;56.43;;;19.03;;
11471;SDS011;47430;50.808;4.388;2022-12-10T14:56:20;64.37;;;23.10;;
11471;SDS011;47430;50.808;4.388;2022-12-10T14:59:00;58.70;;;20.93;;
11471;SDS011;47430;50.808;4.388;2022-12-10T15:01:29;53.17;;;20.00;;
11471;SDS011;47430;50.808;4.388;2022-12-10T15:03:56;46.47;;;17.57;;
11471;SDS011;47430;50.808;4.388;2022-12-10T15:06:24;49.00;;;18.10;;
11471;SDS011;47430;50.808;4.388;2022-12-10T15:08:52;54.70;;;19.27;;
11471;SDS011;47430;50.808;4.388;2022-12-10T15:11:19;51.87;;;17.60;;
11471;SDS011;47430;50.808;4.388;2022-12-10T15:13:47;58.20;;;19.27;;
11471;SDS011;47430;50.808;4.388;2022-12-10T15:16:16;56.77;;;18.87;;
11471;SDS011;47430;50.808;4.388;2022-12-10T15:18:42;58.57;;;19.90;;
11471;SDS011;47430;50.808;4.388;2022-12-10T15:21:14;56.17;;;17.83;;
11471;SDS011;47430;50.808;4.388;2022-12-10T15:23:42;62.17;;;21.27;;
11471;SDS011;47430;50.808;4.388;2022-12-10T15:28:45;58.27;;;20.07;;
11471;SDS011;47430;50.808;4.388;2022-12-10T15:33:38;62.90;;;20.30;;
11471;SDS011;47430;50.808;4.388;2022-12-10T15:36:05;64.70;;;20.70;;
11471;SDS011;47430;50.808;4.388;2022-12-10T15:38:31;64.50;;;20.97;;
11471;SDS011;47430;50.808;4.388;2022-12-10T15:40:58;59.63;;;19.23;;
11471;SDS011;47430;50.808;4.388;2022-12-10T15:43:26;73.03;;;22.50;;
11471;SDS011;47430;50.808;4.388;2022-12-10T15:45:54;53.37;;;18.37;;
11471;SDS011;47430;50.808;4.388;2022-12-10T15:48:21;58.63;;;19.60;;
11471;SDS011;47430;50.808;4.388;2022-12-10T15:50:49;48.23;;;14.20;;
11471;SDS011;47430;50.808;4.388;2022-12-10T15:53:24;52.37;;;20.70;;
11471;SDS011;47430;50.808;4.388;2022-12-10T15:55:51;65.20;;;19.00;;
11471;SDS011;47430;50.808;4.388;2022-12-10T15:58:18;61.40;;;18.73;;
11471;SDS011;47430;50.808;4.388;2022-12-10T16:00:44;58.77;;;20.03;;
11471;SDS011;47430;50.808;4.388;2022-12-10T16:03:15;48.87;;;18.77;;
11471;SDS011;47430;50.808;4.388;2022-12-10T16:05:41;51.57;;;19.67;;
11471;SDS011;47430;50.808;4.388;2022-12-10T16:10:39;58.33;;;21.33;;
11471;SDS011;47430;50.808;4.388;2022-12-10T16:13:06;61.00;;;19.40;;
11471;SDS011;47430;50.808;4.388;2022-12-10T16:15:33;57.30;;;19.80;;
11471;SDS011;47430;50.808;4.388;2022-12-10T16:18:01;58.03;;;20.60;;
11471;SDS011;47430;50.808;4.388;2022-12-10T16:20:28;49.30;;;19.63;;
11471;SDS011;47430;50.808;4.388;2022-12-10T16:22:55;56.23;;;17.80;;
11471;SDS011;47430;50.808;4.388;2022-12-10T16:25:22;59.60;;;21.60;;
11471;SDS011;47430;50.808;4.388;2022-12-10T16:27:49;52.10;;;21.03;;
11471;SDS011;47430;50.808;4.388;2022-12-10T16:30:17;70.33;;;26.87;;
11471;SDS011;47430;50.808;4.388;2022-12-10T16:32:44;36.53;;;14.10;;
11471;SDS011;47430;50.808;4.388;2022-12-10T16:35:10;40.00;;;16.70;;